Terminal Aerodrome Forecast
Issued by NWS

Home | Current Version | Previous Version | Graphics & Text | Print | Product List | Glossary On
Versions: 1 2 3 4 5 6 7 8 9 10 11 12 13 14 15 16 17 18 19 20 21 22 23 24 25 26 27 28
000
FTUS43 KGRB 181000 AAC
TAFAUW
TAF AMD
KAUW 181029Z 1810/1906 13005KT P6SM BKN020 OVC060
      TEMPO 1810/1812 3SM -SHRA BR BKN005 BKN015 OVC025
     FM181200 17007KT P6SM BKN015
     FM181800 17007KT P6SM VCTS BKN025CB
      TEMPO 1819/1823 3SM -SHRA BKN012
     FM182300 16006KT 5SM -SHRA BKN018
     FM190300 13003KT 4SM -SHRA BR BKN012=

USA.gov is the U.S. government's official web portal to all federal, state and local government web resources and services.